createdAt,value
2023-04-18T00:01:13.404Z,7.40
2023-04-18T00:04:15.465Z,7.38
2023-04-18T00:07:21.200Z,7.39
2023-04-18T00:10:23.572Z,7.39
2023-04-18T00:13:25.394Z,7.44
2023-04-18T00:16:31.856Z,7.43
2023-04-18T00:19:33.929Z,7.39
2023-04-18T00:22:37.709Z,7.42
2023-04-18T00:25:41.464Z,7.40
2023-04-18T00:28:43.244Z,7.38
2023-04-18T00:31:45.256Z,7.38
2023-04-18T00:34:47.307Z,7.37
2023-04-18T00:37:50.677Z,7.38
2023-04-18T00:40:52.439Z,7.40
2023-04-18T00:43:54.625Z,7.40
2023-04-18T00:46:56.332Z,7.42
2023-04-18T00:49:59.093Z,7.42
2023-04-18T00:53:03.501Z,7.37
2023-04-18T00:56:06.444Z,7.41
2023-04-18T00:59:09.974Z,7.41
2023-04-18T01:02:12.811Z,7.40
2023-04-18T01:05:14.718Z,7.37
2023-04-18T01:08:19.503Z,7.23
2023-04-18T01:11:21.581Z,7.24
2023-04-18T01:14:23.367Z,7.26
2023-04-18T01:17:25.227Z,7.29
2023-04-18T01:20:29.481Z,7.35
2023-04-18T01:23:32.696Z,7.26
2023-04-18T01:26:35.850Z,7.26
2023-04-18T01:29:38.962Z,7.24
2023-04-18T01:32:41.168Z,7.22
2023-04-18T01:35:42.921Z,7.20
2023-04-18T01:38:44.806Z,7.17
2023-04-18T01:41:48.183Z,7.13
2023-04-18T01:44:49.974Z,7.25
2023-04-18T01:47:52.119Z,7.23
2023-04-18T01:50:53.889Z,7.18
2023-04-18T01:53:55.654Z,7.05
2023-04-18T01:56:58.767Z,7.04
2023-04-18T02:00:00.936Z,7.05
2023-04-18T02:03:02.892Z,7.06
2023-04-18T02:06:05.704Z,7.09
2023-04-18T02:09:08.729Z,7.11
2023-04-18T02:12:12.632Z,7.07
2023-04-18T02:15:15.227Z,7.04
2023-04-18T02:18:17.726Z,7.08
2023-04-18T02:21:19.887Z,6.98
2023-04-18T02:24:21.644Z,6.97
2023-04-18T02:27:24.914Z,7.02
2023-04-18T02:30:26.767Z,6.99
2023-04-18T02:33:28.624Z,6.97
2023-04-18T02:36:30.486Z,7.00
2023-04-18T02:39:33.599Z,7.01
2023-04-18T02:42:37.037Z,7.05
2023-04-18T02:45:39.073Z,6.95
2023-04-18T02:48:40.905Z,6.92
2023-04-18T02:51:42.948Z,6.96
2023-04-18T02:54:45.196Z,6.87
2023-04-18T02:57:48.498Z,6.81
2023-04-18T03:00:53.643Z,6.81
2023-04-18T03:03:55.755Z,6.79
2023-04-18T03:06:58.618Z,6.81
2023-04-18T03:10:00.672Z,6.79
2023-04-18T03:13:05.455Z,6.72
2023-04-18T03:16:10.548Z,6.63
2023-04-18T03:19:12.656Z,6.75
2023-04-18T03:22:16.354Z,6.68
2023-04-18T03:25:18.155Z,6.65
2023-04-18T03:28:21.369Z,6.70
2023-04-18T03:31:23.158Z,6.66
2023-04-18T03:34:25.202Z,6.59
2023-04-18T03:37:27.237Z,6.59
2023-04-18T03:40:29.470Z,6.62
2023-04-18T03:43:33.322Z,6.60
2023-04-18T03:46:35.570Z,6.54
2023-04-18T03:49:37.372Z,6.52
2023-04-18T03:52:40.215Z,6.58
2023-04-18T03:55:42.435Z,6.49
2023-04-18T03:58:45.926Z,6.47
2023-04-18T04:01:47.891Z,6.48
2023-04-18T04:04:49.749Z,6.48
2023-04-18T04:07:51.839Z,6.50
2023-04-18T04:10:53.863Z,6.47
2023-04-18T04:14:00.780Z,6.50
2023-04-18T04:17:02.717Z,6.48
2023-04-18T04:20:05.006Z,6.53
2023-04-18T04:23:06.794Z,6.60
2023-04-18T04:26:09.630Z,6.53
2023-04-18T04:29:12.937Z,6.54
2023-04-18T04:32:14.739Z,6.58
2023-04-18T04:35:16.798Z,6.61
2023-04-18T04:38:18.573Z,6.67
2023-04-18T04:41:21.660Z,6.69
2023-04-18T04:44:24.995Z,6.77
2023-04-18T04:47:26.822Z,6.80
2023-04-18T04:50:28.970Z,6.74
2023-04-18T04:53:30.932Z,6.76
2023-04-18T04:56:33.290Z,6.78
2023-04-18T04:59:36.910Z,6.83
2023-04-18T05:02:38.983Z,6.78
2023-04-18T05:05:41.106Z,6.83
2023-04-18T05:08:43.282Z,6.77
2023-04-18T05:11:44.999Z,6.75
2023-04-18T05:14:48.469Z,6.88
2023-04-18T05:17:51.044Z,6.81
2023-04-18T05:20:53.220Z,6.81
2023-04-18T05:23:55.076Z,6.70
2023-04-18T05:26:57.631Z,6.72
2023-04-18T05:30:02.696Z,6.74
2023-04-18T05:33:05.594Z,6.73
2023-04-18T05:36:07.802Z,6.77
2023-04-18T05:39:09.564Z,6.74
2023-04-18T05:42:12.866Z,6.74
2023-04-18T05:45:17.232Z,6.74
2023-04-18T05:48:20.625Z,6.80
2023-04-18T05:51:22.729Z,6.79
2023-04-18T05:54:24.569Z,6.82
2023-04-18T05:57:26.353Z,6.87
2023-04-18T06:00:30.465Z,6.83
2023-04-18T06:03:32.484Z,6.86
2023-04-18T06:06:35.242Z,6.89
2023-04-18T06:09:37.488Z,6.83
2023-04-18T06:12:39.341Z,6.84
2023-04-18T06:15:43.968Z,6.79
2023-04-18T06:18:46.004Z,6.83
2023-04-18T06:21:48.880Z,6.82
2023-04-18T06:24:51.265Z,6.81
2023-04-18T06:27:53.514Z,6.81
2023-04-18T06:30:56.689Z,6.89
2023-04-18T06:33:58.458Z,6.89
2023-04-18T06:37:00.549Z,6.94
2023-04-18T06:40:02.300Z,7.00
2023-04-18T06:43:04.270Z,7.13
2023-04-18T06:46:08.247Z,7.11
2023-04-18T06:49:10.297Z,7.17
2023-04-18T06:52:12.382Z,7.19
2023-04-18T06:55:14.490Z,7.17
2023-04-18T06:58:16.651Z,7.21
2023-04-18T07:01:19.979Z,7.27
2023-04-18T07:04:22.262Z,7.23
2023-04-18T07:07:24.412Z,7.31
2023-04-18T07:10:26.266Z,7.28
2023-04-18T07:13:28.124Z,7.30
2023-04-18T07:16:31.424Z,7.28
2023-04-18T07:19:33.278Z,7.65
2023-04-18T07:22:37.851Z,7.56
2023-04-18T07:25:40.552Z,7.54
2023-04-18T07:28:42.376Z,7.51
2023-04-18T07:31:45.627Z,7.50
2023-04-18T07:34:47.347Z,7.49
2023-04-18T07:37:51.310Z,7.45
2023-04-18T07:40:57.155Z,7.39
2023-04-18T07:43:59.172Z,7.38
2023-04-18T07:47:02.978Z,7.37
2023-04-18T07:50:05.473Z,7.46
2023-04-18T07:53:08.320Z,7.45
2023-04-18T07:56:11.190Z,7.42
2023-04-18T07:59:13.557Z,7.40
2023-04-18T08:02:16.989Z,7.39
2023-04-18T08:05:20.425Z,7.38
2023-04-18T08:08:22.314Z,7.37
2023-04-18T08:11:24.158Z,7.40
2023-04-18T08:14:26.380Z,7.46
2023-04-18T08:17:29.585Z,7.48
2023-04-18T08:20:31.427Z,7.55
2023-04-18T08:23:33.479Z,7.52
2023-04-18T08:26:35.507Z,7.54
2023-04-18T08:29:37.254Z,7.55
2023-04-18T08:32:42.299Z,7.56
2023-04-18T08:35:44.345Z,7.61
2023-04-18T08:38:46.570Z,7.57
2023-04-18T08:41:57.175Z,7.71
2023-04-18T08:44:59.587Z,7.79
2023-04-18T08:48:02.929Z,7.69
2023-04-18T08:51:05.529Z,7.71
2023-04-18T08:54:09.174Z,7.66
2023-04-18T08:57:12.763Z,7.74
2023-04-18T09:00:17.157Z,7.65
